Time;durP1;ratioP1;P1;durP2;ratioP2;P2;SDS_P1;SDS_P2;PMS_P1;PMS_P2;Temp;Humidity;BMP_temperature;BMP_pressure;BME280_temperature;BME280_humidity;BME280_pressure;Samples;Min_cycle;Max_cycle;Signal;HPM_P1;HPM_P2
2022/11/16 00:00:19;;;;;;;6.60;5.22;;;11.10;99.90;;;;;;5051369;28;20040;-68
2022/11/16 00:02:46;;;;;;;7.32;5.90;;;11.10;99.90;;;;;;5051021;28;20170;-68
2022/11/16 00:05:12;;;;;;;6.80;5.43;;;11.10;99.90;;;;;;5050776;28;20056;-68
2022/11/16 00:07:38;;;;;;;6.13;5.35;;;11.10;99.90;;;;;;5046059;28;20049;-68
2022/11/16 00:10:04;;;;;;;8.75;5.22;;;11.10;99.90;;;;;;5049276;28;20040;-68
2022/11/16 00:12:29;;;;;;;6.93;5.25;;;11.10;99.90;;;;;;5049603;28;20409;-68
2022/11/16 00:14:55;;;;;;;7.10;5.18;;;11.10;99.90;;;;;;5050980;28;20040;-68
2022/11/16 00:17:20;;;;;;;7.68;5.13;;;11.10;99.90;;;;;;5050643;28;20072;-68
2022/11/16 00:19:46;;;;;;;7.45;5.38;;;11.10;99.90;;;;;;5050920;28;20497;-68
2022/11/16 00:22:12;;;;;;;7.63;5.30;;;11.10;99.90;;;;;;5050977;28;20091;-68
2022/11/16 00:24:37;;;;;;;9.23;5.85;;;11.10;99.90;;;;;;5050826;28;20041;-68
2022/11/16 00:27:03;;;;;;;9.27;5.80;;;11.10;99.90;;;;;;5051101;28;20045;-68
2022/11/16 00:29:28;;;;;;;10.63;6.13;;;11.10;99.90;;;;;;5049545;28;20041;-68
2022/11/16 00:31:54;;;;;;;8.95;5.43;;;11.10;99.90;;;;;;5051070;28;20045;-68
2022/11/16 00:34:21;;;;;;;8.95;6.07;;;11.10;99.90;;;;;;5050553;28;20421;-68
2022/11/16 00:36:47;;;;;;;8.07;5.95;;;11.10;99.90;;;;;;5050915;28;20045;-68
2022/11/16 00:39:14;;;;;;;9.15;5.82;;;11.10;99.90;;;;;;5049410;28;20051;-68
2022/11/16 00:41:40;;;;;;;6.72;5.40;;;11.10;99.90;;;;;;5050782;28;20068;-68
2022/11/16 00:44:06;;;;;;;11.00;6.40;;;11.10;99.90;;;;;;5050414;28;20044;-68
2022/11/16 00:46:32;;;;;;;10.30;6.47;;;11.10;99.90;;;;;;5052477;28;20080;-68
2022/11/16 00:48:57;;;;;;;7.85;5.25;;;11.10;99.90;;;;;;5054971;28;20068;-68
2022/11/16 00:51:23;;;;;;;9.55;7.00;;;11.10;99.90;;;;;;5054579;28;20117;-67
2022/11/16 00:53:48;;;;;;;7.60;5.68;;;11.10;99.90;;;;;;5054685;28;20040;-68
2022/11/16 00:56:14;;;;;;;7.90;6.00;;;11.10;99.90;;;;;;5054919;28;20041;-68
2022/11/16 00:58:39;;;;;;;9.43;6.07;;;11.10;99.90;;;;;;5054760;28;20045;-68
2022/11/16 01:01:07;;;;;;;7.90;6.00;;;11.10;99.90;;;;;;5054462;28;20037;-68
2022/11/16 01:03:33;;;;;;;12.05;6.30;;;11.10;99.90;;;;;;5054405;28;20048;-68
2022/11/16 01:06:01;;;;;;;8.15;5.90;;;11.10;99.90;;;;;;5054142;28;20037;-67
2022/11/16 01:08:27;;;;;;;8.38;6.10;;;11.10;99.90;;;;;;5054620;28;20073;-68
2022/11/16 01:10:53;;;;;;;10.60;6.97;;;11.10;99.90;;;;;;5054638;28;20052;-68
2022/11/16 01:13:18;;;;;;;8.48;5.38;;;11.10;99.90;;;;;;5054137;28;20041;-68
2022/11/16 01:15:47;;;;;;;8.23;5.55;;;11.10;99.90;;;;;;5053969;28;20036;-67
2022/11/16 01:18:13;;;;;;;10.10;5.60;;;11.10;99.90;;;;;;5052566;28;20044;-67
2022/11/16 01:20:39;;;;;;;13.07;5.95;;;11.20;99.90;;;;;;5054490;28;20037;-68
2022/11/16 01:23:05;;;;;;;8.57;5.43;;;11.10;99.90;;;;;;5054116;28;20084;-68
2022/11/16 01:25:31;;;;;;;8.65;5.15;;;11.10;99.90;;;;;;5054056;28;20091;-68
2022/11/16 01:27:56;;;;;;;8.35;5.88;;;11.10;99.90;;;;;;5054014;28;20045;-68
2022/11/16 01:30:22;;;;;;;8.25;5.72;;;11.20;99.90;;;;;;5054251;28;20474;-68
2022/11/16 01:32:47;;;;;;;10.25;6.18;;;11.20;99.90;;;;;;5054088;28;20045;-68
2022/11/16 01:35:17;;;;;;;6.22;4.93;;;11.20;99.90;;;;;;5053620;28;20518;-68
2022/11/16 01:37:43;;;;;;;10.15;5.68;;;11.20;99.90;;;;;;5052512;28;20056;-69
2022/11/16 01:40:10;;;;;;;7.60;5.43;;;11.20;99.90;;;;;;5054136;28;20037;-69
2022/11/16 01:42:36;;;;;;;8.27;5.57;;;11.20;99.90;;;;;;5053659;28;20056;-68
2022/11/16 01:45:29;;;;;;;8.68;6.32;;;11.20;99.90;;;;;;5053486;28;20044;-69
2022/11/16 01:47:54;;;;;;;7.32;5.45;;;11.20;99.90;;;;;;5034752;28;20049;-71
2022/11/16 01:50:21;;;;;;;6.20;4.90;;;11.20;99.90;;;;;;5051281;28;20045;-72
2022/11/16 01:52:53;;;;;;;10.98;5.57;;;11.20;99.90;;;;;;5051348;28;20536;-72
2022/11/16 01:55:19;;;;;;;6.38;5.05;;;11.20;99.90;;;;;;5050830;28;20037;-72
2022/11/16 01:57:46;;;;;;;7.65;5.30;;;11.10;99.90;;;;;;5034414;28;20045;-72
2022/11/16 02:00:13;;;;;;;8.15;5.63;;;11.20;99.90;;;;;;5034626;28;20061;-71
2022/11/16 02:02:39;;;;;;;9.35;5.47;;;11.20;99.90;;;;;;5034006;28;20555;-70
2022/11/16 02:05:06;;;;;;;8.45;5.55;;;11.20;99.90;;;;;;5050705;28;20052;-69
2022/11/16 02:09:52;;;;;;;6.47;4.97;;;11.10;99.90;;;;;;5051055;28;20052;-70
2022/11/16 02:10:51;;;;;;;6.72;4.70;;;11.20;99.90;;;;;;5050765;28;20390;-72
2022/11/16 02:13:38;;;;;;;6.05;4.55;;;11.20;99.90;;;;;;5032605;28;20061;-71
2022/11/16 02:16:47;;;;;;;9.52;5.03;;;11.10;99.90;;;;;;5050403;28;20143;-71
2022/11/16 02:19:35;;;;;;;7.07;4.80;;;11.10;99.90;;;;;;5050737;28;20089;-69
2022/11/16 02:22:24;;;;;;;10.25;5.25;;;11.20;99.90;;;;;;5050415;28;20076;-68
2022/11/16 02:25:15;;;;;;;9.23;5.60;;;11.20;99.90;;;;;;5051485;28;20126;-68
2022/11/16 02:28:11;;;;;;;8.45;4.20;;;11.10;99.90;;;;;;5052866;28;20095;-68
2022/11/16 02:30:43;;;;;;;6.75;4.78;;;11.10;99.90;;;;;;5052037;28;20401;-68
2022/11/16 02:33:14;;;;;;;6.80;4.82;;;11.10;99.90;;;;;;5052948;28;20068;-68
2022/11/16 02:35:49;;;;;;;8.05;4.88;;;11.10;99.90;;;;;;5052732;28;20072;-69
2022/11/16 02:38:26;;;;;;;8.70;4.60;;;11.20;99.90;;;;;;5052907;28;20045;-69
2022/11/16 02:40:57;;;;;;;10.88;5.15;;;11.10;99.90;;;;;;5052972;28;20051;-69
2022/11/16 02:43:32;;;;;;;6.07;4.30;;;11.10;99.90;;;;;;5052677;28;20055;-68
2022/11/16 02:46:03;;;;;;;6.10;4.10;;;11.10;99.90;;;;;;5052718;28;20086;-68
2022/11/16 02:48:37;;;;;;;9.38;4.93;;;11.10;99.90;;;;;;5051579;28;20098;-69
2022/11/16 02:51:05;;;;;;;7.50;4.18;;;11.10;99.90;;;;;;5052426;28;20049;-69
2022/11/16 02:53:37;;;;;;;9.23;5.40;;;11.10;99.90;;;;;;5051537;28;20436;-70
2022/11/16 02:56:03;;;;;;;;;;;11.10;99.90;;;;;;5052808;28;20041;-69
2022/11/16 02:58:29;;;;;;;5.38;4.35;;;11.10;99.90;;;;;;5051083;28;19970;-72
2022/11/16 03:01:04;;;;;;;8.00;5.10;;;11.10;99.90;;;;;;5051145;28;20401;-71
2022/11/16 03:03:53;;;;;;;7.40;5.68;;;11.00;99.90;;;;;;5052498;28;20124;-71
2022/11/16 03:06:27;;;;;;;7.78;4.95;;;11.10;99.90;;;;;;5052255;28;20041;-69
2022/11/16 03:09:13;;;;;;;5.97;4.47;;;11.10;99.90;;;;;;5051670;28;20490;-69
2022/11/16 03:11:59;;;;;;;10.55;5.22;;;11.00;99.90;;;;;;5052168;28;20077;-69
2022/11/16 03:14:48;;;;;;;11.43;5.25;;;11.10;99.90;;;;;;5051889;28;20043;-69
2022/11/16 03:17:19;;;;;;;8.68;5.43;;;11.00;99.90;;;;;;5050706;28;20052;-70
2022/11/16 03:19:59;;;;;;;8.18;5.32;;;11.00;99.90;;;;;;5050726;28;20159;-69
2022/11/16 03:22:45;;;;;;;8.82;5.60;;;11.00;99.90;;;;;;5050330;28;20098;-69
2022/11/16 03:25:14;;;;;;;8.70;5.60;;;11.00;99.90;;;;;;5051658;28;20098;-70
2022/11/16 03:28:16;;;;;;;11.10;5.30;;;11.00;99.90;;;;;;5051814;28;20036;-72
2022/11/16 03:30:57;;;;;;;7.38;5.80;;;10.90;99.90;;;;;;5047333;28;20087;-72
2022/11/16 03:33:37;;;;;;;8.27;5.35;;;10.90;99.90;;;;;;5050503;28;20505;-72
2022/11/16 03:36:06;;;;;;;8.23;5.28;;;10.90;99.90;;;;;;5050481;28;20052;-73
2022/11/16 03:38:34;;;;;;;10.02;5.78;;;10.90;99.90;;;;;;5050253;28;20087;-72
2022/11/16 03:41:02;;;;;;;7.93;5.70;;;10.90;99.90;;;;;;5051820;28;20041;-72
2022/11/16 03:43:29;;;;;;;9.98;6.47;;;10.90;99.90;;;;;;5050070;28;20045;-73
2022/11/16 03:45:56;;;;;;;9.90;6.13;;;10.90;99.90;;;;;;5049859;28;20091;-73
2022/11/16 03:48:22;;;;;;;12.95;6.60;;;10.90;99.90;;;;;;5050436;28;20081;-72
2022/11/16 03:50:48;;;;;;;11.07;6.40;;;10.90;99.90;;;;;;5050069;28;20068;-72
2022/11/16 03:53:14;;;;;;;9.80;6.05;;;10.80;99.90;;;;;;5051622;28;20464;-72
2022/11/16 03:55:39;;;;;;;10.80;6.28;;;10.80;99.90;;;;;;5051018;28;20079;-73
2022/11/16 03:58:05;;;;;;;9.00;6.10;;;10.80;99.90;;;;;;5049910;28;20113;-72
2022/11/16 04:00:30;;;;;;;8.77;6.70;;;10.90;99.90;;;;;;5050100;28;20566;-72
2022/11/16 04:02:56;;;;;;;11.65;7.40;;;10.80;99.90;;;;;;5051415;28;20037;-70
2022/11/16 04:24:48;;;;;;;10.82;6.55;;;10.80;99.90;;;;;;5050876;28;20041;-68
2022/11/16 04:30:01;;;;;;;10.55;7.25;;;10.80;99.90;;;;;;5051214;28;20076;-68
2022/11/16 04:37:57;;;;;;;10.98;7.57;;;10.80;99.90;;;;;;5050822;28;20053;-67
2022/11/16 04:40:25;;;;;;;11.02;6.93;;;10.80;99.90;;;;;;5050949;28;20404;-68
2022/11/16 04:43:02;;;;;;;10.05;7.32;;;10.80;99.90;;;;;;5050736;28;20041;-68
2022/11/16 04:48:13;;;;;;;11.88;7.45;;;10.80;99.90;;;;;;5050694;28;20132;-68
2022/11/16 04:50:40;;;;;;;9.85;7.10;;;10.80;99.90;;;;;;5050837;28;20037;-68
2022/11/16 04:53:06;;;;;;;15.68;8.02;;;10.80;99.90;;;;;;5050912;28;20041;-68
2022/11/16 04:55:32;;;;;;;12.55;8.02;;;10.80;99.90;;;;;;5050527;28;20124;-67
2022/11/16 04:57:59;;;;;;;11.27;7.70;;;10.80;99.90;;;;;;5050699;28;20123;-68
2022/11/16 05:00:25;;;;;;;11.27;7.10;;;10.70;99.90;;;;;;5050598;28;20095;-68
2022/11/16 05:02:50;;;;;;;11.65;7.78;;;10.70;99.90;;;;;;5050453;28;20452;-68
2022/11/16 05:05:17;;;;;;;10.63;7.13;;;10.70;99.90;;;;;;5050376;28;20041;-68
2022/11/16 05:07:42;;;;;;;11.65;7.63;;;10.80;99.90;;;;;;5050719;28;20033;-68
2022/11/16 05:10:09;;;;;;;10.65;7.07;;;10.80;99.90;;;;;;5049495;28;20044;-68
2022/11/16 05:12:34;;;;;;;11.55;7.72;;;10.80;99.90;;;;;;5050523;28;20433;-68
2022/11/16 05:15:00;;;;;;;13.90;8.80;;;10.70;99.90;;;;;;5050301;28;20044;-68
2022/11/16 05:17:26;;;;;;;11.82;8.80;;;10.80;99.90;;;;;;5050282;28;20772;-68
2022/11/16 05:22:37;;;;;;;12.60;8.32;;;10.70;99.90;;;;;;5050216;28;20049;-68
2022/11/16 05:25:04;;;;;;;12.52;8.15;;;10.80;99.90;;;;;;5050361;28;20041;-68
2022/11/16 05:27:30;;;;;;;12.60;8.35;;;10.70;99.90;;;;;;5050231;28;20060;-68
2022/11/16 05:29:56;;;;;;;13.40;7.88;;;10.70;99.90;;;;;;5050314;28;20460;-68
2022/11/16 05:32:23;;;;;;;11.40;8.18;;;10.70;99.90;;;;;;5049943;28;20455;-68
2022/11/16 05:34:49;;;;;;;12.45;8.40;;;10.70;99.90;;;;;;5053899;28;20044;-68
2022/11/16 05:37:16;;;;;;;12.98;7.97;;;10.70;99.90;;;;;;5053923;28;20076;-68
2022/11/16 05:39:42;;;;;;;12.30;8.30;;;10.70;99.90;;;;;;5054112;28;20049;-68
2022/11/16 05:42:08;;;;;;;10.50;7.80;;;10.70;99.90;;;;;;5053734;28;20549;-67
2022/11/16 05:44:33;;;;;;;14.05;8.82;;;10.70;99.90;;;;;;5053248;28;20033;-68
2022/11/16 05:46:59;;;;;;;13.85;9.10;;;10.70;99.90;;;;;;5054112;28;20035;-68
2022/11/16 05:49:25;;;;;;;14.90;9.05;;;10.70;99.90;;;;;;5053871;28;20075;-68
2022/11/16 05:51:51;;;;;;;13.55;9.30;;;10.70;99.90;;;;;;5053510;28;20076;-68
2022/11/16 05:54:19;;;;;;;13.95;9.40;;;10.70;99.90;;;;;;5053584;28;20049;-68
2022/11/16 05:56:46;;;;;;;13.40;8.82;;;10.70;99.90;;;;;;5053619;28;20079;-68
2022/11/16 05:59:13;;;;;;;15.00;9.20;;;10.70;99.90;;;;;;5053115;28;20167;-68
2022/11/16 06:01:39;;;;;;;13.32;9.45;;;10.70;99.90;;;;;;5052167;28;20098;-69
2022/11/16 06:04:04;;;;;;;13.38;9.38;;;10.70;99.90;;;;;;5053456;28;20116;-70
2022/11/16 06:06:30;;;;;;;14.63;8.80;;;10.70;99.90;;;;;;5053630;28;20041;-72
2022/11/16 06:08:56;;;;;;;13.57;8.82;;;10.70;99.90;;;;;;5052183;28;20041;-72
2022/11/16 06:11:21;;;;;;;11.77;8.93;;;10.70;99.90;;;;;;5051720;28;20501;-73
2022/11/16 06:13:47;;;;;;;16.17;10.05;;;10.70;99.90;;;;;;5053309;28;20045;-73
2022/11/16 06:16:12;;;;;;;15.30;9.57;;;10.70;99.90;;;;;;5051853;28;20041;-73
2022/11/16 06:18:40;;;;;;;13.77;9.88;;;10.70;99.90;;;;;;5052105;28;20039;-73
2022/11/16 06:21:07;;;;;;;14.30;9.23;;;10.70;99.90;;;;;;5053123;28;20056;-72
2022/11/16 06:23:33;;;;;;;13.88;9.50;;;10.80;99.90;;;;;;5053181;28;20072;-72
2022/11/16 06:25:59;;;;;;;16.25;10.40;;;10.80;99.90;;;;;;5052787;28;20072;-72
2022/11/16 06:28:26;;;;;;;17.98;10.13;;;10.80;99.90;;;;;;5035311;28;20076;-71
2022/11/16 06:30:51;;;;;;;14.10;9.40;;;10.80;99.90;;;;;;5053111;28;20041;-71
2022/11/16 06:33:17;;;;;;;15.90;10.23;;;10.80;99.90;;;;;;5051694;28;20051;-73
2022/11/16 06:35:43;;;;;;;17.17;10.40;;;10.80;99.90;;;;;;5051314;28;20072;-73
2022/11/16 06:38:09;;;;;;;13.90;9.85;;;10.80;99.90;;;;;;5051360;28;20102;-74
2022/11/16 06:40:36;;;;;;;13.65;9.13;;;10.80;99.90;;;;;;5051785;28;20409;-73
2022/11/16 06:43:01;;;;;;;13.20;9.50;;;10.80;99.90;;;;;;5051158;28;20049;-73
2022/11/16 06:45:27;;;;;;;12.52;8.50;;;10.80;99.90;;;;;;5051543;28;20099;-72
2022/11/16 06:47:52;;;;;;;12.35;8.45;;;10.80;99.90;;;;;;5034894;28;20132;-71
2022/11/16 06:50:18;;;;;;;12.55;8.45;;;10.90;99.90;;;;;;5052638;28;20141;-71
2022/11/16 06:52:48;;;;;;;12.00;7.38;;;10.80;99.90;;;;;;5052607;28;20451;-73
2022/11/16 06:55:15;;;;;;;13.73;7.75;;;10.80;99.90;;;;;;5052050;28;20040;-72
2022/11/16 06:57:41;;;;;;;9.38;6.80;;;10.80;99.90;;;;;;5034460;28;20052;-73
2022/11/16 07:00:08;;;;;;;10.25;7.57;;;10.80;99.90;;;;;;5052545;28;20045;-74
2022/11/16 07:02:38;;;;;;;11.15;7.68;;;10.80;99.90;;;;;;5051067;28;20052;-74
2022/11/16 07:05:05;;;;;;;9.82;7.47;;;10.80;99.90;;;;;;5052301;28;20044;-71
2022/11/16 07:07:31;;;;;;;12.15;6.40;;;10.80;99.90;;;;;;5050921;28;20045;-70
2022/11/16 07:09:57;;;;;;;8.82;6.28;;;10.80;99.90;;;;;;5052421;28;20155;-70
2022/11/16 07:12:22;;;;;;;8.93;6.63;;;10.80;99.90;;;;;;5052158;28;20533;-70
2022/11/16 07:14:48;;;;;;;9.05;6.38;;;10.80;99.90;;;;;;5051866;28;20423;-70
2022/11/16 07:17:13;;;;;;;9.82;6.53;;;10.80;99.90;;;;;;5052261;28;20051;-69
2022/11/16 07:19:39;;;;;;;8.70;6.53;;;10.80;99.90;;;;;;5049848;28;20103;-68
2022/11/16 07:22:05;;;;;;;8.63;6.70;;;10.80;99.90;;;;;;5047313;28;20052;-67
2022/11/16 07:24:31;;;;;;;9.77;6.68;;;10.80;99.90;;;;;;5048860;28;20033;-67
2022/11/16 07:26:56;;;;;;;10.18;7.22;;;10.80;99.90;;;;;;5049596;28;20106;-67
2022/11/16 07:29:23;;;;;;;10.13;8.23;;;10.80;99.90;;;;;;5049971;28;20037;-68
2022/11/16 07:31:48;;;;;;;10.48;7.40;;;10.80;99.90;;;;;;5048348;28;20036;-68
2022/11/16 07:34:14;;;;;;;9.88;7.43;;;10.80;99.90;;;;;;5049323;28;20456;-68
2022/11/16 07:36:40;;;;;;;10.80;8.00;;;10.80;99.90;;;;;;5048885;28;20037;-67
2022/11/16 07:39:08;;;;;;;13.02;8.75;;;10.80;99.90;;;;;;5048908;28;20041;-68
2022/11/16 07:41:34;;;;;;;10.45;8.05;;;10.80;99.90;;;;;;5048844;28;20072;-67
2022/11/16 07:44:00;;;;;;;14.43;9.65;;;10.90;99.90;;;;;;5049240;28;20048;-67
2022/11/16 07:46:25;;;;;;;14.80;9.00;;;10.90;99.90;;;;;;5051895;28;20113;-68
2022/11/16 07:48:51;;;;;;;12.65;8.77;;;10.80;99.90;;;;;;5050857;28;20052;-68
2022/11/16 07:51:18;;;;;;;16.95;9.38;;;10.90;99.90;;;;;;5050930;28;20041;-68
2022/11/16 07:53:44;;;;;;;13.90;9.27;;;10.80;99.90;;;;;;5050063;28;20033;-67
2022/11/16 07:56:11;;;;;;;13.85;10.13;;;10.80;99.90;;;;;;5049854;28;20048;-67
2022/11/16 07:58:37;;;;;;;16.85;9.77;;;10.80;99.90;;;;;;5051459;28;20041;-68
2022/11/16 08:01:08;;;;;;;14.52;9.68;;;10.80;99.90;;;;;;5051376;28;20060;-68
2022/11/16 08:03:34;;;;;;;13.70;10.05;;;10.80;99.90;;;;;;5051298;28;20138;-67
2022/11/16 08:06:22;;;;;;;16.92;9.75;;;10.80;99.90;;;;;;5050859;28;20041;-68
2022/11/16 08:08:47;;;;;;;12.32;9.27;;;10.90;99.90;;;;;;5051382;28;20037;-68
2022/11/16 08:11:13;;;;;;;13.32;10.07;;;10.90;99.90;;;;;;5051150;28;20048;-67
2022/11/16 08:13:40;;;;;;;14.77;9.80;;;10.80;99.90;;;;;;5051267;28;20045;-68
2022/11/16 08:16:17;;;;;;;13.35;9.40;;;10.80;99.90;;;;;;5050858;28;20037;-67
2022/11/16 08:18:43;;;;;;;11.60;8.45;;;10.80;99.90;;;;;;5050981;28;20037;-68
2022/11/16 08:21:11;;;;;;;15.82;9.88;;;10.80;99.90;;;;;;5051125;28;20044;-68
2022/11/16 08:23:39;;;;;;;14.38;9.95;;;10.80;99.90;;;;;;5051005;28;20044;-67
2022/11/16 08:26:11;;;;;;;15.20;10.05;;;10.80;99.90;;;;;;5051112;28;20113;-67
2022/11/16 08:28:37;;;;;;;12.93;9.38;;;10.80;99.90;;;;;;5051005;28;20464;-67
2022/11/16 08:31:17;;;;;;;15.13;10.18;;;10.80;99.90;;;;;;5051166;28;20037;-67
2022/11/16 08:33:43;;;;;;;16.92;10.18;;;10.80;99.90;;;;;;5050789;28;20045;-68
2022/11/16 08:36:16;;;;;;;13.02;9.45;;;10.80;99.90;;;;;;5050926;28;20063;-68
2022/11/16 08:38:49;;;;;;;13.95;10.02;;;10.80;99.90;;;;;;5049241;28;20045;-68
2022/11/16 08:41:16;;;;;;;14.18;10.13;;;10.80;99.90;;;;;;5050734;28;20037;-67
2022/11/16 08:43:42;;;;;;;14.02;9.60;;;10.80;99.90;;;;;;5050376;28;20097;-68
2022/11/16 08:46:09;;;;;;;14.15;10.07;;;10.80;99.90;;;;;;5050677;28;20490;-67
2022/11/16 08:48:36;;;;;;;12.88;9.55;;;10.90;99.90;;;;;;5050746;28;20437;-68
2022/11/16 08:51:07;;;;;;;9.55;6.50;;;10.80;99.90;;;;;;5049610;28;20045;-69
2022/11/16 08:53:33;;;;;;;15.73;10.35;;;11.10;99.90;;;;;;5046878;28;20449;-67
2022/11/16 08:56:12;;;;;;;13.10;9.55;;;11.00;99.90;;;;;;5048453;28;20033;-67
2022/11/16 08:58:38;;;;;;;16.73;10.63;;;11.00;99.90;;;;;;5049213;28;20044;-67
2022/11/16 09:01:08;;;;;;;15.65;9.70;;;11.00;99.90;;;;;;5049985;28;20693;-67
2022/11/16 09:03:35;;;;;;;14.93;10.63;;;11.00;99.90;;;;;;5048962;28;20424;-67
2022/11/16 09:06:01;;;;;;;16.80;10.68;;;11.00;99.90;;;;;;5050421;28;20040;-67
2022/11/16 09:08:27;;;;;;;15.93;10.85;;;11.10;99.90;;;;;;5053396;28;20040;-67
2022/11/16 09:10:52;;;;;;;18.27;12.35;;;11.10;99.90;;;;;;5053191;28;20045;-70
2022/11/16 09:13:18;;;;;;;16.35;11.45;;;11.50;99.90;;;;;;5054632;28;20401;-68
2022/11/16 09:15:43;;;;;;;17.33;11.30;;;11.40;99.90;;;;;;5054090;28;20053;-67
2022/11/16 09:18:09;;;;;;;16.65;11.10;;;11.40;99.90;;;;;;5054213;28;20045;-68
2022/11/16 09:20:34;;;;;;;15.20;10.35;;;11.40;99.90;;;;;;5053131;28;20045;-68
2022/11/16 09:23:00;;;;;;;16.08;10.13;;;11.50;99.90;;;;;;5053960;28;20037;-68
2022/11/16 09:25:26;;;;;;;18.33;11.15;;;11.40;99.90;;;;;;5053594;28;20051;-68
2022/11/16 09:27:54;;;;;;;16.50;11.07;;;11.50;99.90;;;;;;5053607;28;20044;-68
2022/11/16 09:30:20;;;;;;;17.20;10.32;;;11.50;99.90;;;;;;5053813;28;20033;-68
2022/11/16 09:32:45;;;;;;;15.63;10.35;;;11.50;99.90;;;;;;5053384;28;20033;-68
2022/11/16 09:35:11;;;;;;;15.60;10.70;;;11.50;99.90;;;;;;5053231;28;20095;-68
2022/11/16 09:37:36;;;;;;;17.52;11.65;;;11.60;99.90;;;;;;5035523;28;20451;-69
2022/11/16 09:40:03;;;;;;;15.32;10.02;;;11.70;99.90;;;;;;5053304;28;20132;-68
2022/11/16 09:42:44;;;;;;;16.60;11.55;;;11.70;99.90;;;;;;5053242;28;20037;-68
2022/11/16 09:45:23;;;;;;;16.92;10.00;;;11.80;99.90;;;;;;5051194;28;20033;-68
2022/11/16 09:47:55;;;;;;;19.05;10.40;;;11.80;99.90;;;;;;5052345;28;20051;-68
2022/11/16 09:50:39;;;;;;;18.70;8.87;;;11.80;99.90;;;;;;5053720;28;20087;-68
2022/11/16 09:53:26;;;;;;;16.00;9.73;;;11.80;99.90;;;;;;5053705;28;20105;-71
2022/11/16 09:56:16;;;;;;;17.80;10.02;;;11.80;99.90;;;;;;5053691;28;20048;-69
2022/11/16 09:59:19;;;;;;;13.57;9.23;;;11.70;99.90;;;;;;5052383;28;20045;-69
2022/11/16 10:02:00;;;;;;;13.30;7.78;;;11.80;99.90;;;;;;5039302;28;20045;-69
2022/11/16 10:04:56;;;;;;;12.65;8.60;;;11.80;99.90;;;;;;5051039;28;20186;-69
2022/11/16 10:07:40;;;;;;;15.02;7.88;;;11.70;99.90;;;;;;5051612;28;20584;-69
2022/11/16 10:10:14;;;;;;;13.27;7.80;;;11.70;99.90;;;;;;5052907;28;20044;-69
2022/11/16 10:13:04;;;;;;;11.07;7.15;;;11.70;99.90;;;;;;5052793;28;20118;-69
2022/11/16 10:15:43;;;;;;;12.02;7.03;;;11.70;99.90;;;;;;5051960;28;20489;-68
2022/11/16 10:18:20;;;;;;;11.80;6.85;;;11.70;99.90;;;;;;5052072;28;20049;-69
2022/11/16 10:20:58;;;;;;;11.05;7.25;;;11.70;99.90;;;;;;5052399;28;20045;-69
2022/11/16 10:23:40;;;;;;;11.85;7.00;;;11.80;99.90;;;;;;5052902;28;20041;-68
2022/11/16 10:26:14;;;;;;;16.45;7.53;;;11.80;99.90;;;;;;5052626;28;20072;-68
2022/11/16 10:28:57;;;;;;;9.90;5.78;;;11.80;99.90;;;;;;5052471;28;20048;-69
2022/11/16 10:31:51;;;;;;;9.75;5.32;;;11.70;99.90;;;;;;5051281;28;20037;-69
2022/11/16 10:34:41;;;;;;;11.23;5.38;;;11.80;99.90;;;;;;5052365;28;20045;-69
2022/11/16 10:37:11;;;;;;;12.80;5.72;;;11.80;99.90;;;;;;5052366;28;20132;-68
2022/11/16 10:39:39;;;;;;;7.93;4.40;;;11.80;99.90;;;;;;5052341;28;20049;-68
2022/11/16 10:42:10;;;;;;;7.47;4.78;;;11.90;99.90;;;;;;5052334;28;20071;-69
2022/11/16 10:45:12;;;;;;;6.93;4.20;;;11.90;99.90;;;;;;5052065;28;20044;-69
2022/11/16 10:47:55;;;;;;;11.32;5.35;;;11.90;99.90;;;;;;5052564;28;20115;-68
2022/11/16 10:50:39;;;;;;;9.85;4.20;;;11.90;99.90;;;;;;5052620;28;20041;-69
2022/11/16 10:53:05;;;;;;;9.93;4.40;;;11.90;99.90;;;;;;5052519;28;20056;-68
2022/11/16 10:55:30;;;;;;;9.85;4.43;;;12.00;99.90;;;;;;5051827;28;20040;-68
2022/11/16 10:58:01;;;;;;;9.93;4.53;;;11.90;99.90;;;;;;5051022;28;20052;-68
2022/11/16 11:00:41;;;;;;;11.02;3.70;;;12.00;99.90;;;;;;5052487;28;20507;-68
2022/11/16 11:03:09;;;;;;;7.50;4.10;;;11.90;99.90;;;;;;5052047;28;20135;-69
2022/11/16 11:05:35;;;;;;;10.48;3.92;;;11.90;99.90;;;;;;5051472;28;20037;-68
2022/11/16 11:08:09;;;;;;;9.88;4.00;;;11.80;99.90;;;;;;5052137;28;20167;-68
2022/11/16 11:10:35;;;;;;;7.68;3.63;;;11.80;99.90;;;;;;5051863;28;20029;-68
2022/11/16 11:13:10;;;;;;;9.43;3.45;;;11.70;99.90;;;;;;5052180;28;20049;-68
2022/11/16 11:15:40;;;;;;;8.20;4.13;;;11.70;99.90;;;;;;5051363;28;20040;-68
2022/11/16 11:18:22;;;;;;;10.25;3.50;;;11.80;99.90;;;;;;5051861;28;20041;-68
2022/11/16 11:20:51;;;;;;;10.65;3.42;;;11.80;99.90;;;;;;5051441;28;20528;-68
2022/11/16 11:23:22;;;;;;;8.55;3.85;;;11.70;99.90;;;;;;5050429;28;20041;-68
2022/11/16 11:25:55;;;;;;;8.40;3.67;;;11.80;99.90;;;;;;5051006;28;20041;-68
2022/11/16 11:28:26;;;;;;;6.22;3.28;;;11.80;99.90;;;;;;5051795;28;20037;-69
2022/11/16 11:30:57;;;;;;;6.70;3.55;;;11.80;99.90;;;;;;5033151;28;20098;-68
2022/11/16 11:33:26;;;;;;;6.70;3.10;;;11.80;99.90;;;;;;5051702;28;20051;-69
2022/11/16 11:36:12;;;;;;;10.88;3.53;;;11.80;99.90;;;;;;5050880;28;20696;-68
2022/11/16 11:38:59;;;;;;;6.93;3.28;;;11.90;99.90;;;;;;5051757;28;20041;-68
2022/11/16 11:41:27;;;;;;;13.88;4.15;;;12.00;99.90;;;;;;5050827;28;22454;-68
2022/11/16 11:44:04;;;;;;;7.70;3.78;;;11.90;99.90;;;;;;5050482;28;20033;-68
2022/11/16 11:46:34;;;;;;;6.13;3.40;;;11.90;99.90;;;;;;5050129;28;20123;-68
2022/11/16 11:49:09;;;;;;;5.85;3.35;;;11.80;99.90;;;;;;5051049;28;20037;-68
2022/11/16 11:51:39;;;;;;;13.18;3.30;;;11.90;99.90;;;;;;5049525;28;20028;-68
2022/11/16 11:54:13;;;;;;;8.80;3.40;;;11.90;99.90;;;;;;5048783;28;20085;-68
2022/11/16 11:56:39;;;;;;;13.00;3.00;;;12.00;99.90;;;;;;5051276;28;20385;-67
2022/11/16 11:59:05;;;;;;;8.13;2.65;;;12.00;99.90;;;;;;5050956;28;20037;-67
2022/11/16 12:01:51;;;;;;;10.32;2.90;;;11.90;99.90;;;;;;5050991;28;20033;-68
2022/11/16 12:04:43;;;;;;;6.22;2.47;;;11.90;99.90;;;;;;5049356;28;20119;-68
2022/11/16 12:07:40;;;;;;;7.88;2.97;;;11.90;99.90;;;;;;5051206;28;20036;-68
2022/11/16 12:10:20;;;;;;;8.55;2.47;;;12.10;99.90;;;;;;5051187;28;20103;-67
2022/11/16 12:13:28;;;;;;;9.18;2.63;;;11.90;99.90;;;;;;5051085;28;20041;-67
2022/11/16 12:16:09;;;;;;;9.55;3.05;;;11.80;99.90;;;;;;5050509;28;20045;-68
2022/11/16 12:18:50;;;;;;;5.43;2.60;;;11.80;99.90;;;;;;5051121;28;20064;-68
2022/11/16 12:21:46;;;;;;;5.60;2.60;;;11.90;99.90;;;;;;5050987;28;20044;-67
2022/11/16 12:24:49;;;;;;;11.38;2.60;;;11.80;99.90;;;;;;5050734;28;20048;-68
2022/11/16 12:27:52;;;;;;;10.85;2.83;;;11.90;99.90;;;;;;5051121;28;20132;-68
2022/11/16 12:30:20;;;;;;;11.35;3.10;;;11.80;99.90;;;;;;5049511;28;20056;-67
2022/11/16 12:33:01;;;;;;;13.05;3.25;;;11.80;99.90;;;;;;5050617;28;20068;-68
2022/11/16 12:35:43;;;;;;;9.70;2.85;;;11.80;99.90;;;;;;5050366;28;20080;-67
2022/11/16 12:38:24;;;;;;;10.67;2.73;;;11.80;99.90;;;;;;5050815;28;20049;-68
2022/11/16 12:41:30;;;;;;;5.75;2.65;;;11.80;99.90;;;;;;5050874;28;20049;-67
2022/11/16 12:44:02;;;;;;;5.30;2.75;;;11.90;99.90;;;;;;5050157;28;20498;-68
2022/11/16 12:46:57;;;;;;;12.85;3.22;;;11.80;99.90;;;;;;5050778;28;20571;-67
2022/11/16 12:49:53;;;;;;;6.40;2.13;;;11.80;99.90;;;;;;5050473;28;20378;-67
2022/11/16 12:52:51;;;;;;;7.55;2.60;;;11.90;99.90;;;;;;5050536;28;20493;-68
2022/11/16 12:55:21;;;;;;;11.00;3.00;;;11.80;99.90;;;;;;5048960;28;20045;-67
2022/11/16 12:58:20;;;;;;;13.60;2.97;;;11.80;99.90;;;;;;5050604;28;20045;-67
2022/11/16 13:00:54;;;;;;;9.85;3.15;;;11.80;99.90;;;;;;5050610;28;20045;-68
2022/11/16 13:03:45;;;;;;;11.68;2.40;;;11.80;99.90;;;;;;5050307;28;20042;-67
2022/11/16 13:06:18;;;;;;;9.85;2.20;;;11.80;99.90;;;;;;5050663;28;20040;-68
2022/11/16 13:08:47;;;;;;;;;;;11.80;99.90;;;;;;5051109;28;20137;-68
2022/11/16 13:11:21;;;;;;;9.07;2.30;;;11.80;99.90;;;;;;5050517;28;20439;-68
2022/11/16 13:13:51;;;;;;;6.50;2.17;;;11.80;99.90;;;;;;5050396;28;20041;-68
2022/11/16 13:16:19;;;;;;;7.97;2.20;;;11.80;99.90;;;;;;5050333;28;20405;-67
2022/11/16 13:18:45;;;;;;;9.95;2.20;;;11.80;99.90;;;;;;5050577;28;20079;-68
2022/11/16 13:21:24;;;;;;;9.75;2.22;;;11.90;99.90;;;;;;5050341;28;20084;-67
2022/11/16 13:24:14;;;;;;;9.85;2.28;;;11.90;99.90;;;;;;5048654;28;20171;-68
2022/11/16 13:27:18;;;;;;;7.60;2.13;;;11.90;99.90;;;;;;5050192;28;20037;-68
2022/11/16 13:29:50;;;;;;;5.68;2.15;;;11.90;99.90;;;;;;5050552;28;20115;-67
2022/11/16 13:32:29;;;;;;;7.95;2.58;;;11.90;99.90;;;;;;5050312;28;20044;-68
2022/11/16 13:34:56;;;;;;;6.68;2.38;;;12.00;99.90;;;;;;5049971;28;20087;-67
2022/11/16 13:37:36;;;;;;;12.10;2.13;;;11.90;99.90;;;;;;5049990;28;20096;-67